Time;durP1;ratioP1;P1;durP2;ratioP2;P2;SDS_P1;SDS_P2;PMS_P1;PMS_P2;Temp;Humidity;BMP_temperature;BMP_pressure;BME280_temperature;BME280_humidity;BME280_pressure;Samples;Min_cycle;Max_cycle;Signal;HPM_P1;HPM_P2
2023/11/15 00:00:48;;;;;;;19.13;6.78;;;10.50;99.90;;;;;;5044964;28;20037;-60
2023/11/15 00:03:14;;;;;;;18.15;6.78;;;10.60;99.90;;;;;;5041737;28;20032;-62
2023/11/15 00:05:40;;;;;;;21.48;7.13;;;10.60;99.90;;;;;;5045931;28;20387;-60
2023/11/15 00:08:06;;;;;;;18.73;6.47;;;10.70;99.90;;;;;;5046388;28;20033;-62
2023/11/15 00:10:32;;;;;;;14.05;5.82;;;10.60;99.90;;;;;;5043052;28;20549;-61
2023/11/15 00:12:57;;;;;;;23.88;6.75;;;10.60;99.90;;;;;;5048482;28;21338;-61
2023/11/15 00:15:23;;;;;;;27.83;7.97;;;10.70;99.90;;;;;;5043878;28;20509;-59
2023/11/15 00:17:49;;;;;;;21.05;7.18;;;10.80;99.90;;;;;;5047888;28;20021;-62
2023/11/15 00:20:14;;;;;;;20.63;7.60;;;10.70;99.90;;;;;;5037910;28;20522;-62
2023/11/15 00:22:41;;;;;;;23.25;7.55;;;10.70;99.90;;;;;;5047830;28;20040;-61
2023/11/15 00:25:07;;;;;;;26.23;8.55;;;10.70;99.90;;;;;;5045931;28;20499;-61
2023/11/15 00:27:33;;;;;;;16.70;6.60;;;10.70;99.90;;;;;;5038183;28;20025;-62
2023/11/15 00:29:58;;;;;;;21.20;7.93;;;10.80;99.90;;;;;;5034927;28;20792;-59
2023/11/15 00:32:24;;;;;;;22.08;7.05;;;10.80;99.90;;;;;;5050177;28;20494;-61
2023/11/15 00:34:49;;;;;;;21.73;7.85;;;10.80;99.90;;;;;;5042132;28;20545;-63
2023/11/15 00:37:15;;;;;;;26.52;6.70;;;10.70;99.90;;;;;;5046730;28;20557;-60
2023/11/15 00:39:41;;;;;;;28.17;6.55;;;10.80;99.90;;;;;;5043711;28;20021;-61
2023/11/15 00:42:08;;;;;;;35.42;7.00;;;10.80;99.90;;;;;;5046327;28;20075;-61
2023/11/15 00:44:33;;;;;;;22.75;6.47;;;10.80;99.90;;;;;;5044009;28;20495;-61
2023/11/15 00:46:59;;;;;;;33.60;5.10;;;10.80;99.90;;;;;;5048436;28;20028;-62
2023/11/15 00:49:24;;;;;;;23.55;6.30;;;10.80;99.90;;;;;;5037587;28;20017;-63
2023/11/15 00:51:51;;;;;;;17.70;5.55;;;10.90;99.90;;;;;;5041428;28;20028;-60
2023/11/15 00:54:17;;;;;;;20.65;5.57;;;10.80;99.90;;;;;;5044602;28;20611;-62
2023/11/15 00:56:42;;;;;;;20.65;5.72;;;10.80;99.90;;;;;;5043875;28;20031;-63
2023/11/15 00:59:09;;;;;;;25.40;6.45;;;10.80;99.90;;;;;;5038839;28;20031;-63
2023/11/15 01:01:36;;;;;;;22.65;6.28;;;10.80;99.90;;;;;;5040336;28;20017;-62
2023/11/15 01:04:05;;;;;;;18.25;5.85;;;10.80;99.90;;;;;;5048274;28;20017;-64
2023/11/15 01:06:31;;;;;;;26.60;6.55;;;10.80;99.90;;;;;;5046711;28;20035;-59
2023/11/15 01:08:57;;;;;;;21.98;6.50;;;10.80;99.90;;;;;;5044746;28;20067;-60
2023/11/15 01:11:26;;;;;;;26.45;6.15;;;10.80;99.90;;;;;;5042166;28;20410;-62
2023/11/15 01:13:53;;;;;;;30.08;6.55;;;10.80;99.90;;;;;;5040639;28;20029;-62
2023/11/15 01:16:23;;;;;;;21.10;5.35;;;10.80;99.90;;;;;;5037326;28;20044;-62
2023/11/15 01:18:49;;;;;;;26.95;6.20;;;10.80;99.90;;;;;;5040951;28;20479;-59
2023/11/15 01:21:16;;;;;;;24.73;5.32;;;10.90;99.90;;;;;;5041445;28;20036;-61
2023/11/15 01:23:43;;;;;;;26.17;4.95;;;10.80;99.90;;;;;;5046705;28;20385;-61
2023/11/15 01:26:08;;;;;;;19.30;4.32;;;10.90;99.90;;;;;;5038023;28;20021;-59
2023/11/15 01:28:34;;;;;;;24.35;5.13;;;10.80;99.90;;;;;;5044466;28;20553;-60
2023/11/15 01:30:59;;;;;;;29.63;4.88;;;10.90;99.90;;;;;;5035485;28;20029;-60
2023/11/15 01:33:25;;;;;;;24.48;5.03;;;10.90;99.90;;;;;;5044645;28;20026;-60
2023/11/15 01:35:50;;;;;;;39.70;6.22;;;10.90;99.90;;;;;;5042554;28;20026;-60
2023/11/15 01:38:16;;;;;;;25.25;5.07;;;10.90;99.90;;;;;;5046449;28;20033;-61
2023/11/15 01:40:43;;;;;;;14.80;4.90;;;10.90;99.90;;;;;;5038540;28;20043;-61
2023/11/15 01:43:10;;;;;;;22.20;4.90;;;11.00;99.90;;;;;;5041121;28;20079;-62
2023/11/15 01:45:36;;;;;;;32.08;4.95;;;11.00;99.90;;;;;;5038731;28;20029;-63
2023/11/15 01:48:02;;;;;;;22.45;5.15;;;11.00;99.90;;;;;;5042066;28;20394;-60
2023/11/15 01:50:29;;;;;;;30.40;6.47;;;11.00;99.90;;;;;;5039837;28;20025;-62
2023/11/15 01:52:55;;;;;;;26.67;5.45;;;11.00;99.90;;;;;;5046271;28;20395;-61
2023/11/15 01:55:21;;;;;;;25.42;4.32;;;11.00;99.90;;;;;;5043448;28;20402;-60
2023/11/15 01:57:48;;;;;;;22.15;4.50;;;11.00;99.90;;;;;;5047273;28;20372;-63
2023/11/15 02:00:14;;;;;;;20.65;4.20;;;11.00;99.90;;;;;;5040872;28;20029;-60
2023/11/15 02:02:42;;;;;;;26.88;5.68;;;11.10;99.90;;;;;;5043877;28;20456;-63
2023/11/15 02:05:09;;;;;;;28.65;4.65;;;11.10;99.90;;;;;;5041629;28;20029;-62
2023/11/15 02:07:37;;;;;;;34.20;4.88;;;11.10;99.90;;;;;;5049370;28;20079;-61
2023/11/15 02:10:04;;;;;;;22.42;5.35;;;11.10;99.90;;;;;;5042717;28;20075;-60
2023/11/15 02:12:30;;;;;;;28.58;5.43;;;11.10;99.90;;;;;;5046923;28;20017;-62
2023/11/15 02:14:55;;;;;;;22.98;6.22;;;11.10;99.90;;;;;;5048302;28;20035;-61
2023/11/15 02:17:22;;;;;;;19.17;5.57;;;11.20;99.90;;;;;;5048237;28;20029;-61
2023/11/15 02:19:48;;;;;;;18.60;5.03;;;11.20;99.90;;;;;;5038847;28;21456;-62
2023/11/15 02:22:14;;;;;;;24.88;5.38;;;11.20;99.90;;;;;;5046269;28;20045;-60
2023/11/15 02:24:40;;;;;;;27.35;7.28;;;11.10;99.90;;;;;;5044734;28;20030;-62
2023/11/15 02:27:05;;;;;;;14.55;4.90;;;11.10;99.90;;;;;;5045656;28;20018;-61
2023/11/15 02:29:31;;;;;;;24.67;6.15;;;11.20;99.90;;;;;;5039958;28;20029;-58
2023/11/15 02:31:56;;;;;;;26.27;6.13;;;11.20;99.90;;;;;;5043393;28;20038;-62
2023/11/15 02:34:22;;;;;;;25.98;5.07;;;11.20;99.90;;;;;;5051358;28;20028;-63
2023/11/15 02:36:47;;;;;;;32.60;5.82;;;11.20;99.90;;;;;;5046260;28;20052;-60
2023/11/15 02:39:13;;;;;;;24.23;5.57;;;11.20;99.90;;;;;;5041939;28;20543;-63
2023/11/15 02:41:40;;;;;;;25.67;6.60;;;11.20;99.90;;;;;;5046369;28;20423;-63
2023/11/15 02:44:05;;;;;;;20.88;5.82;;;11.20;99.90;;;;;;5047674;28;20020;-63
2023/11/15 02:46:31;;;;;;;19.60;4.82;;;11.20;99.90;;;;;;5043275;28;20083;-62
2023/11/15 02:48:57;;;;;;;24.30;5.53;;;11.20;99.90;;;;;;5041536;28;20017;-62
2023/11/15 02:51:22;;;;;;;31.20;5.78;;;11.20;99.90;;;;;;5044798;28;20539;-62
2023/11/15 02:53:48;;;;;;;20.77;4.88;;;11.20;99.90;;;;;;5050431;28;20091;-62
2023/11/15 02:56:14;;;;;;;34.22;6.38;;;11.20;99.90;;;;;;5046311;28;20025;-61
2023/11/15 02:58:39;;;;;;;23.00;5.30;;;11.20;99.90;;;;;;5049564;28;20051;-62
2023/11/15 03:01:06;;;;;;;32.63;5.47;;;11.20;99.90;;;;;;5041331;28;20130;-62
2023/11/15 03:03:35;;;;;;;28.02;4.28;;;11.20;99.90;;;;;;5044510;28;20057;-62
2023/11/15 03:06:01;;;;;;;29.42;5.53;;;11.20;99.90;;;;;;5037520;28;20035;-63
2023/11/15 03:08:26;;;;;;;26.05;5.57;;;11.20;99.90;;;;;;5041978;28;20108;-59
2023/11/15 03:10:52;;;;;;;31.13;5.05;;;11.20;99.90;;;;;;5045120;28;20021;-60
2023/11/15 03:13:18;;;;;;;23.20;4.95;;;11.20;99.90;;;;;;5046666;28;20479;-59
2023/11/15 03:15:45;;;;;;;24.25;4.57;;;11.20;99.90;;;;;;5039446;28;20109;-63
2023/11/15 03:18:11;;;;;;;28.38;5.70;;;11.20;99.90;;;;;;5043344;28;20044;-63
2023/11/15 03:20:37;;;;;;;26.10;5.53;;;11.20;99.90;;;;;;5041880;28;20037;-62
2023/11/15 03:23:02;;;;;;;19.02;5.15;;;11.30;99.90;;;;;;5048074;28;20578;-62
2023/11/15 03:25:28;;;;;;;17.98;4.03;;;11.30;99.90;;;;;;5035887;28;20033;-61
2023/11/15 03:27:55;;;;;;;18.00;4.25;;;11.20;99.90;;;;;;5046847;28;20036;-62
2023/11/15 03:30:20;;;;;;;18.88;4.05;;;11.30;99.90;;;;;;5039863;28;20053;-60
2023/11/15 03:32:46;;;;;;;19.75;4.50;;;11.20;99.90;;;;;;5044332;28;20114;-62
2023/11/15 03:35:13;;;;;;;17.13;3.13;;;11.20;99.90;;;;;;5041574;28;20222;-62
2023/11/15 03:37:38;;;;;;;22.08;4.05;;;11.20;99.90;;;;;;5045079;28;20060;-61
2023/11/15 03:40:08;;;;;;;21.02;3.88;;;11.10;99.90;;;;;;5039101;28;20106;-62
2023/11/15 03:42:35;;;;;;;25.23;4.53;;;11.10;99.90;;;;;;5044610;28;20032;-63
2023/11/15 03:45:01;;;;;;;24.33;4.10;;;11.20;99.90;;;;;;5038193;28;20021;-63
2023/11/15 03:47:27;;;;;;;21.80;3.38;;;11.10;99.90;;;;;;5041234;28;20376;-63
2023/11/15 03:49:52;;;;;;;18.55;4.18;;;11.10;99.90;;;;;;5044969;28;20471;-64
2023/11/15 03:52:18;;;;;;;27.00;4.10;;;11.10;99.90;;;;;;5044730;28;20428;-63
2023/11/15 03:54:43;;;;;;;28.80;4.53;;;11.10;99.90;;;;;;5042223;28;20033;-63
2023/11/15 03:57:11;;;;;;;20.35;5.40;;;11.00;99.90;;;;;;5042628;28;20021;-60
2023/11/15 03:59:37;;;;;;;27.15;5.18;;;11.00;99.90;;;;;;5048241;28;20037;-62
2023/11/15 04:02:02;;;;;;;29.58;5.57;;;11.00;99.90;;;;;;5042331;28;20033;-60
2023/11/15 04:04:28;;;;;;;23.05;4.70;;;11.00;99.90;;;;;;5044498;28;20097;-62
2023/11/15 04:06:53;;;;;;;21.08;5.63;;;11.00;99.90;;;;;;5042660;28;20505;-62
2023/11/15 04:09:19;;;;;;;24.85;4.22;;;11.00;99.90;;;;;;5043655;28;20060;-63
2023/11/15 04:11:45;;;;;;;23.45;4.32;;;11.00;99.90;;;;;;5044737;28;20488;-63
2023/11/15 04:14:10;;;;;;;23.10;5.05;;;11.00;99.90;;;;;;5042332;28;20499;-62
2023/11/15 04:16:36;;;;;;;28.83;4.65;;;11.00;99.90;;;;;;5041303;28;20029;-60
2023/11/15 04:19:01;;;;;;;16.58;3.38;;;11.10;99.90;;;;;;5037258;28;20064;-63
2023/11/15 04:21:28;;;;;;;17.35;3.10;;;11.10;99.90;;;;;;5044541;28;20025;-63
2023/11/15 04:23:54;;;;;;;25.63;4.18;;;11.10;99.90;;;;;;5051068;28;20025;-62
2023/11/15 04:26:21;;;;;;;21.67;3.45;;;11.10;99.90;;;;;;5037817;28;20082;-62
2023/11/15 04:28:47;;;;;;;31.30;4.05;;;11.10;99.90;;;;;;5046064;28;20442;-62
2023/11/15 04:31:12;;;;;;;29.48;3.50;;;11.10;99.90;;;;;;5036747;28;20096;-60
2023/11/15 04:33:38;;;;;;;24.38;3.88;;;11.10;99.90;;;;;;5045674;28;20033;-62
2023/11/15 04:36:04;;;;;;;18.33;3.15;;;11.10;99.90;;;;;;5038290;28;20033;-61
2023/11/15 04:38:30;;;;;;;22.17;3.60;;;11.20;99.90;;;;;;5042275;28;20095;-60
2023/11/15 04:40:56;;;;;;;17.50;3.50;;;11.20;99.90;;;;;;5037201;28;20033;-62
2023/11/15 04:43:23;;;;;;;28.92;3.78;;;11.20;99.90;;;;;;5043344;28;20373;-62
2023/11/15 04:45:50;;;;;;;21.38;4.22;;;11.10;99.90;;;;;;5037587;28;20087;-62
2023/11/15 04:48:16;;;;;;;20.38;3.53;;;11.20;99.90;;;;;;5044110;28;20025;-62
2023/11/15 04:50:42;;;;;;;22.52;3.42;;;11.10;99.90;;;;;;5041710;28;20112;-61
2023/11/15 04:53:08;;;;;;;17.50;3.15;;;11.10;99.90;;;;;;5044587;28;20033;-60
2023/11/15 04:55:34;;;;;;;19.95;3.53;;;11.10;99.90;;;;;;5035211;28;20040;-60
2023/11/15 04:58:00;;;;;;;27.52;4.40;;;11.00;99.90;;;;;;5041913;28;20025;-60
2023/11/15 05:00:26;;;;;;;17.27;3.88;;;11.00;99.90;;;;;;5047107;28;20051;-59
2023/11/15 05:02:51;;;;;;;25.75;4.20;;;11.00;99.90;;;;;;5037786;28;20423;-60
2023/11/15 05:05:17;;;;;;;21.45;3.75;;;11.00;99.90;;;;;;5040452;28;20025;-61
2023/11/15 05:07:43;;;;;;;25.02;4.15;;;11.00;99.90;;;;;;5043769;28;20026;-62
2023/11/15 05:10:09;;;;;;;18.90;3.60;;;11.00;99.90;;;;;;5035118;28;20029;-61
2023/11/15 05:12:36;;;;;;;17.00;3.58;;;11.00;99.90;;;;;;5046245;28;20106;-62
2023/11/15 05:15:02;;;;;;;22.20;4.53;;;11.00;99.90;;;;;;5037485;28;20387;-61
2023/11/15 05:17:27;;;;;;;21.08;3.00;;;11.00;99.90;;;;;;5037902;28;20026;-59
2023/11/15 05:19:53;;;;;;;14.07;3.17;;;11.00;99.90;;;;;;5037400;28;20025;-61
2023/11/15 05:22:18;;;;;;;19.65;4.05;;;11.10;99.90;;;;;;5040385;28;20033;-61
2023/11/15 05:24:44;;;;;;;16.17;3.08;;;11.10;99.90;;;;;;5044513;28;20030;-62
2023/11/15 05:27:10;;;;;;;17.80;4.25;;;11.10;99.90;;;;;;5039721;28;20111;-60
2023/11/15 05:29:37;;;;;;;23.98;4.15;;;11.10;99.90;;;;;;5034999;28;20021;-60
2023/11/15 05:32:02;;;;;;;25.98;3.55;;;11.10;99.90;;;;;;5041429;28;20029;-56
2023/11/15 05:34:28;;;;;;;17.05;4.10;;;11.10;99.90;;;;;;5038107;28;20029;-62
2023/11/15 05:36:54;;;;;;;20.33;3.67;;;11.10;99.90;;;;;;5036783;28;20108;-62
2023/11/15 05:39:19;;;;;;;31.70;4.00;;;11.10;99.90;;;;;;5036598;28;20099;-62
2023/11/15 05:41:45;;;;;;;24.40;3.88;;;11.10;99.90;;;;;;5044682;28;20403;-60
2023/11/15 05:44:10;;;;;;;25.77;4.82;;;11.10;99.90;;;;;;5038672;28;20028;-60
2023/11/15 05:46:36;;;;;;;26.58;4.32;;;11.10;99.90;;;;;;5041906;28;20073;-60
2023/11/15 05:49:02;;;;;;;23.13;4.07;;;11.10;99.90;;;;;;5042532;28;20029;-58
2023/11/15 05:51:27;;;;;;;27.63;3.65;;;11.10;99.90;;;;;;5038714;28;20029;-59
2023/11/15 05:53:53;;;;;;;27.27;4.47;;;11.10;99.90;;;;;;5040857;28;20082;-59
2023/11/15 05:56:20;;;;;;;29.02;3.83;;;11.10;99.90;;;;;;5038249;28;20024;-60
2023/11/15 05:58:45;;;;;;;24.90;3.45;;;11.10;99.90;;;;;;5041278;28;20056;-59
2023/11/15 06:01:12;;;;;;;15.82;3.17;;;11.10;99.90;;;;;;5034691;28;20495;-59
2023/11/15 06:03:38;;;;;;;25.10;4.05;;;11.10;99.90;;;;;;5046534;28;20049;-61
2023/11/15 06:06:04;;;;;;;16.58;3.85;;;11.10;99.90;;;;;;5048211;28;20079;-61
2023/11/15 06:08:29;;;;;;;19.05;4.07;;;11.10;99.90;;;;;;5039142;28;20029;-61
2023/11/15 06:10:55;;;;;;;25.95;3.60;;;11.10;99.90;;;;;;5040960;28;20052;-60
2023/11/15 06:13:20;;;;;;;20.27;4.32;;;11.20;99.90;;;;;;5034408;28;20104;-59
2023/11/15 06:15:46;;;;;;;28.30;4.10;;;11.40;99.90;;;;;;5034467;28;20048;-62
2023/11/15 06:18:12;;;;;;;28.80;3.83;;;11.30;99.90;;;;;;5033611;28;20025;-61
2023/11/15 06:20:40;;;;;;;19.45;4.40;;;11.20;99.90;;;;;;5034145;28;20030;-60
2023/11/15 06:23:06;;;;;;;18.25;3.70;;;11.10;99.90;;;;;;5040993;28;20033;-61
2023/11/15 06:25:32;;;;;;;25.27;4.13;;;11.10;99.90;;;;;;5041918;28;20036;-62
2023/11/15 06:27:59;;;;;;;25.35;4.95;;;11.10;99.90;;;;;;5038516;28;20025;-62
2023/11/15 06:30:25;;;;;;;30.38;5.40;;;11.10;99.90;;;;;;5039032;28;20033;-60
2023/11/15 06:32:50;;;;;;;20.92;4.00;;;11.10;99.90;;;;;;5038623;28;20029;-61
2023/11/15 06:35:19;;;;;;;19.60;4.40;;;11.10;99.90;;;;;;5042819;28;20025;-59
2023/11/15 06:37:46;;;;;;;31.13;4.93;;;11.10;99.90;;;;;;5036925;28;20033;-57
2023/11/15 06:40:13;;;;;;;24.90;4.63;;;11.20;99.90;;;;;;5046951;28;20029;-59
2023/11/15 06:42:39;;;;;;;17.23;4.63;;;11.20;99.90;;;;;;5042305;28;20057;-60
2023/11/15 06:45:05;;;;;;;24.35;4.70;;;11.20;99.90;;;;;;5039235;28;20064;-61
2023/11/15 06:47:31;;;;;;;23.45;4.22;;;11.20;99.90;;;;;;5038656;28;20109;-59
2023/11/15 06:49:57;;;;;;;22.27;4.07;;;11.20;99.90;;;;;;5057454;28;20627;-60
2023/11/15 06:52:25;;;;;;;18.27;3.42;;;11.20;99.90;;;;;;5044804;28;20032;-60
2023/11/15 06:54:52;;;;;;;19.80;4.20;;;11.20;99.90;;;;;;5041069;28;20116;-59
2023/11/15 06:57:19;;;;;;;16.23;3.70;;;11.20;99.90;;;;;;5044235;28;20025;-60
2023/11/15 06:59:44;;;;;;;14.60;3.75;;;11.20;99.90;;;;;;5044666;28;20056;-60
2023/11/15 07:02:11;;;;;;;21.00;3.75;;;11.30;99.90;;;;;;5046117;28;20080;-61
2023/11/15 07:04:37;;;;;;;28.73;4.05;;;11.30;99.90;;;;;;5048215;28;20501;-60
2023/11/15 07:07:03;;;;;;;16.63;4.32;;;11.30;99.90;;;;;;5047061;28;20115;-60
2023/11/15 07:09:28;;;;;;;21.98;4.38;;;11.30;99.90;;;;;;5040277;28;20479;-60
2023/11/15 07:11:54;;;;;;;27.08;3.60;;;11.30;99.90;;;;;;5044512;28;20037;-59
2023/11/15 07:14:20;;;;;;;23.90;4.07;;;11.30;99.90;;;;;;5044232;28;20029;-60
2023/11/15 07:16:46;;;;;;;27.30;4.97;;;11.30;99.90;;;;;;5045965;28;20116;-63
2023/11/15 07:19:13;;;;;;;15.95;3.75;;;11.30;99.90;;;;;;5049519;28;20031;-59
2023/11/15 07:21:39;;;;;;;30.58;4.03;;;11.30;99.90;;;;;;5037960;28;20029;-60
2023/11/15 07:24:05;;;;;;;28.70;4.35;;;11.40;99.90;;;;;;5045275;28;20090;-62
2023/11/15 07:26:35;;;;;;;30.33;5.82;;;11.40;99.90;;;;;;5038534;28;20022;-58
2023/11/15 07:29:12;;;;;;;14.40;3.15;;;11.40;99.90;;;;;;5038723;28;20025;-59
2023/11/15 07:31:40;;;;;;;20.35;3.75;;;11.40;99.90;;;;;;5042408;28;20100;-61
2023/11/15 07:34:08;;;;;;;12.95;3.50;;;11.40;99.90;;;;;;5040211;28;20045;-60
2023/11/15 07:36:34;;;;;;;23.63;4.35;;;11.40;99.90;;;;;;5042339;28;20530;-60
2023/11/15 07:39:04;;;;;;;35.75;5.05;;;11.40;99.90;;;;;;5046934;28;20076;-58
2023/11/15 07:41:31;;;;;;;19.17;4.60;;;11.40;99.90;;;;;;5040529;28;20130;-57
2023/11/15 07:43:58;;;;;;;34.08;6.18;;;11.40;99.90;;;;;;5035752;28;20038;-60
2023/11/15 07:46:24;;;;;;;23.40;4.20;;;11.40;99.90;;;;;;5039293;28;20023;-56
2023/11/15 07:48:50;;;;;;;21.80;4.93;;;11.40;99.90;;;;;;5041881;28;20084;-59
2023/11/15 07:51:18;;;;;;;26.98;4.05;;;11.40;99.90;;;;;;5037264;28;20721;-60
2023/11/15 07:53:44;;;;;;;15.98;4.18;;;11.40;99.90;;;;;;5043801;28;20106;-60
2023/11/15 07:56:09;;;;;;;24.50;4.07;;;11.40;99.90;;;;;;5050552;28;20021;-59
2023/11/15 07:58:35;;;;;;;19.15;3.95;;;11.50;99.90;;;;;;5040018;28;20033;-56
2023/11/15 08:01:00;;;;;;;14.55;3.53;;;11.50;99.90;;;;;;5038552;28;20112;-59
2023/11/15 08:03:28;;;;;;;22.02;3.45;;;11.40;99.90;;;;;;5044389;28;20086;-59
2023/11/15 08:05:55;;;;;;;19.80;3.88;;;11.40;99.90;;;;;;5042399;28;20025;-60
2023/11/15 08:08:22;;;;;;;20.63;3.55;;;11.40;99.90;;;;;;5043989;28;20021;-59
2023/11/15 08:10:50;;;;;;;26.92;3.70;;;11.40;99.90;;;;;;5047568;28;20045;-60
2023/11/15 08:13:22;;;;;;;24.40;3.58;;;11.40;99.90;;;;;;5041060;28;20045;-60
2023/11/15 08:15:47;;;;;;;23.25;3.03;;;11.40;99.90;;;;;;5044938;28;20025;-60
2023/11/15 08:18:15;;;;;;;28.98;3.28;;;11.50;99.90;;;;;;5041028;28;20117;-60
2023/11/15 08:20:45;;;;;;;20.20;3.50;;;11.40;99.90;;;;;;5041148;28;20039;-59
2023/11/15 08:23:11;;;;;;;16.75;2.55;;;11.60;99.90;;;;;;5040181;28;20045;-58
2023/11/15 08:25:41;;;;;;;13.80;2.72;;;11.60;99.90;;;;;;5045438;28;20399;-59
2023/11/15 08:28:07;;;;;;;20.30;3.47;;;11.70;99.90;;;;;;5048527;28;20478;-58
2023/11/15 08:30:33;;;;;;;19.13;3.85;;;11.70;99.90;;;;;;5047979;28;20113;-54
2023/11/15 08:32:59;;;;;;;21.38;2.90;;;11.70;99.90;;;;;;5045513;28;20029;-62
2023/11/15 08:35:26;;;;;;;25.42;3.72;;;11.80;99.90;;;;;;5045449;28;20033;-56
2023/11/15 08:37:52;;;;;;;15.38;2.90;;;11.90;99.90;;;;;;5037005;28;20096;-59
2023/11/15 08:40:22;;;;;;;19.52;3.50;;;11.80;99.90;;;;;;5039376;28;20029;-60
2023/11/15 08:42:49;;;;;;;22.55;3.33;;;11.90;99.90;;;;;;5043088;28;20035;-59
2023/11/15 08:45:15;;;;;;;18.98;3.70;;;11.90;99.90;;;;;;5044638;28;20025;-59
2023/11/15 08:47:41;;;;;;;17.20;3.17;;;11.90;99.90;;;;;;5041148;28;20014;-61
2023/11/15 08:50:09;;;;;;;21.40;3.80;;;11.90;99.90;;;;;;5044596;28;20025;-60
2023/11/15 08:52:39;;;;;;;19.38;4.05;;;11.90;99.90;;;;;;5038831;28;20026;-59
2023/11/15 08:55:06;;;;;;;14.07;3.55;;;11.90;99.90;;;;;;5045544;28;20501;-62
2023/11/15 08:57:32;;;;;;;18.40;4.53;;;11.90;99.90;;;;;;5047226;28;20030;-62
2023/11/15 08:59:57;;;;;;;25.08;3.75;;;11.90;99.90;;;;;;5047375;28;20029;-61
2023/11/15 09:02:23;;;;;;;27.42;3.75;;;11.90;99.90;;;;;;5045880;28;20159;-59
2023/11/15 09:04:50;;;;;;;20.30;3.55;;;12.00;99.90;;;;;;5042031;28;20044;-54
2023/11/15 09:07:19;;;;;;;29.38;4.03;;;12.10;99.90;;;;;;5039606;28;20121;-60
2023/11/15 09:09:47;;;;;;;25.50;3.38;;;12.10;99.90;;;;;;5047300;28;20387;-59
2023/11/15 09:12:13;;;;;;;19.67;4.13;;;12.20;99.90;;;;;;5044175;28;20090;-60
2023/11/15 09:14:39;;;;;;;21.05;3.45;;;12.20;99.90;;;;;;5043128;28;20430;-55
2023/11/15 09:17:12;;;;;;;25.98;4.32;;;12.10;99.90;;;;;;5033102;28;20021;-61
2023/11/15 09:19:38;;;;;;;14.45;2.92;;;12.10;99.90;;;;;;5042003;28;20097;-62
2023/11/15 09:22:05;;;;;;;22.70;3.92;;;12.10;99.90;;;;;;5049888;28;20030;-58
2023/11/15 09:24:31;;;;;;;22.02;4.07;;;12.10;99.90;;;;;;5037430;28;20488;-59
2023/11/15 09:26:56;;;;;;;27.95;3.90;;;12.10;99.90;;;;;;5045102;28;20059;-54
2023/11/15 09:29:25;;;;;;;19.50;3.13;;;12.10;99.90;;;;;;5043502;28;20075;-60
2023/11/15 09:31:53;;;;;;;19.77;3.58;;;12.10;99.90;;;;;;5037852;28;20471;-59
2023/11/15 09:34:18;;;;;;;15.57;2.58;;;12.00;99.90;;;;;;5042885;28;20020;-59
2023/11/15 09:36:44;;;;;;;23.05;2.97;;;12.00;99.90;;;;;;5049154;28;20025;-59
2023/11/15 09:39:10;;;;;;;14.85;2.75;;;12.00;99.90;;;;;;5041257;28;20055;-60
2023/11/15 09:41:36;;;;;;;21.45;2.88;;;11.90;99.90;;;;;;5048487;28;20495;-59
2023/11/15 09:44:11;;;;;;;22.17;2.50;;;11.90;99.90;;;;;;5045631;28;20506;-58
2023/11/15 09:46:40;;;;;;;17.40;2.30;;;12.00;99.90;;;;;;5039577;28;20026;-60
2023/11/15 09:49:07;;;;;;;19.33;2.55;;;12.10;99.90;;;;;;5045487;28;20060;-61
2023/11/15 09:51:34;;;;;;;17.80;2.35;;;12.20;99.90;;;;;;5047209;28;20429;-59
2023/11/15 09:54:06;;;;;;;16.45;2.72;;;12.30;99.90;;;;;;5041052;28;20067;-61
2023/11/15 09:56:34;;;;;;;17.25;2.38;;;12.30;99.90;;;;;;5044198;28;20029;-60
2023/11/15 09:59:00;;;;;;;13.88;2.60;;;12.40;99.90;;;;;;5034080;28;20029;-59
2023/11/15 10:01:26;;;;;;;15.35;2.30;;;12.40;99.90;;;;;;5038540;28;20029;-58
2023/11/15 10:03:52;;;;;;;10.35;2.00;;;12.50;99.90;;;;;;5041603;28;20043;-58
2023/11/15 10:06:18;;;;;;;13.20;2.00;;;12.50;99.90;;;;;;5047251;28;20502;-60
2023/11/15 10:08:54;;;;;;;15.88;2.38;;;12.50;99.90;;;;;;5037097;28;20048;-59
2023/11/15 10:11:20;;;;;;;13.60;2.70;;;12.50;99.90;;;;;;5039123;28;20021;-60
2023/11/15 10:13:51;;;;;;;14.98;3.53;;;12.50;99.90;;;;;;5037327;28;20028;-59
2023/11/15 10:16:24;;;;;;;18.52;3.10;;;12.60;99.90;;;;;;5039583;28;20025;-58
2023/11/15 10:18:51;;;;;;;16.40;2.50;;;12.50;99.90;;;;;;5040744;28;20513;-59
2023/11/15 10:21:19;;;;;;;18.23;3.50;;;12.40;99.90;;;;;;5049103;28;20032;-59
2023/11/15 10:23:45;;;;;;;13.98;2.40;;;12.40;99.90;;;;;;5040819;28;20029;-54
2023/11/15 10:26:12;;;;;;;17.65;2.63;;;12.30;99.90;;;;;;5039589;28;20079;-61
2023/11/15 10:28:43;;;;;;;16.98;4.13;;;12.30;99.90;;;;;;5045074;28;20079;-62
2023/11/15 10:31:12;;;;;;;18.27;2.28;;;12.30;99.90;;;;;;5044824;28;20025;-57
2023/11/15 10:33:43;;;;;;;13.82;2.60;;;12.20;99.90;;;;;;5039957;28;20056;-60
2023/11/15 10:36:22;;;;;;;16.67;2.72;;;12.30;99.90;;;;;;5043660;28;20079;-60
2023/11/15 10:38:55;;;;;;;12.13;2.45;;;12.50;99.90;;;;;;5045971;28;20029;-60
2023/11/15 10:41:25;;;;;;;25.58;2.83;;;12.60;99.90;;;;;;5044273;28;20028;-59
2023/11/15 10:43:54;;;;;;;10.75;2.55;;;12.80;99.90;;;;;;5051607;28;20024;-62
2023/11/15 10:46:31;;;;;;;13.13;2.60;;;12.90;99.90;;;;;;5046925;28;20435;-60
2023/11/15 10:48:58;;;;;;;18.17;2.65;;;12.90;99.90;;;;;;5043619;28;20028;-58
2023/11/15 10:51:29;;;;;;;13.93;2.45;;;12.90;99.90;;;;;;5051323;28;20033;-62
2023/11/15 10:53:56;;;;;;;12.30;2.20;;;12.90;99.90;;;;;;5040803;28;20178;-56
2023/11/15 10:56:24;;;;;;;13.35;2.58;;;12.90;99.90;;;;;;5043159;28;20049;-60
2023/11/15 10:58:52;;;;;;;11.73;2.55;;;12.90;99.90;;;;;;5037235;28;20036;-60
2023/11/15 11:01:18;;;;;;;18.98;2.42;;;12.80;99.90;;;;;;5041399;28;20025;-61
2023/11/15 11:03:46;;;;;;;13.32;2.03;;;12.70;99.90;;;;;;5044336;28;20022;-61
2023/11/15 11:06:21;;;;;;;10.18;2.22;;;12.80;99.90;;;;;;5039112;28;20041;-60
2023/11/15 11:09:13;;;;;;;18.10;2.13;;;12.80;99.90;;;;;;5048240;28;20018;-59
2023/11/15 11:11:46;;;;;;;16.90;2.47;;;12.80;99.90;;;;;;5039586;28;20507;-60
2023/11/15 11:14:30;;;;;;;9.98;2.00;;;12.80;99.90;;;;;;5044558;28;20065;-60
2023/11/15 11:16:56;;;;;;;15.75;1.80;;;13.10;99.90;;;;;;5044655;28;20067;-60
2023/11/15 11:19:24;;;;;;;15.45;2.70;;;13.40;99.90;;;;;;5042465;28;20075;-59
2023/11/15 11:22:03;;;;;;;17.95;1.98;;;13.40;99.90;;;;;;5038789;28;20063;-60
2023/11/15 11:24:39;;;;;;;15.70;2.92;;;13.50;99.90;;;;;;5041960;28;20113;-60
2023/11/15 11:27:14;;;;;;;18.17;2.20;;;13.40;99.90;;;;;;5045726;28;20029;-61
2023/11/15 11:29:51;;;;;;;14.43;2.35;;;13.70;99.90;;;;;;5045708;28;20075;-61
2023/11/15 11:32:44;;;;;;;6.80;1.70;;;13.80;99.90;;;;;;5038922;28;20033;-58
2023/11/15 11:35:07;;;;;;;10.23;2.10;;;13.90;99.90;;;;;;5037490;28;20063;-56
2023/11/15 11:37:57;;;;;;;11.40;1.90;;;14.00;99.90;;;;;;5039992;28;20496;-60
2023/11/15 11:40:25;;;;;;;14.75;1.90;;;14.30;99.90;;;;;;5038113;28;20039;-58
2023/11/15 11:42:52;;;;;;;11.65;2.10;;;14.30;99.90;;;;;;5037332;28;20017;-59
2023/11/15 11:45:23;;;;;;;13.27;2.60;;;13.80;99.90;;;;;;5038489;28;20037;-57
2023/11/15 11:47:48;;;;;;;16.75;2.00;;;13.90;99.90;;;;;;5035425;28;20029;-59
2023/11/15 11:50:24;;;;;;;11.85;1.65;;;13.90;99.90;;;;;;5040513;28;20036;-60
2023/11/15 11:52:53;;;;;;;7.28;1.85;;;14.10;99.90;;;;;;5040584;28;20270;-59
2023/11/15 11:55:18;;;;;;;13.20;2.40;;;14.40;99.90;;;;;;5035444;28;20035;-61
2023/11/15 11:57:44;;;;;;;11.60;2.25;;;14.40;99.90;;;;;;5033200;28;20029;-61
2023/11/15 12:00:11;;;;;;;11.07;2.00;;;14.30;99.90;;;;;;5038739;28;20036;-57
2023/11/15 12:02:40;;;;;;;9.07;1.73;;;14.20;99.90;;;;;;5033847;28;20110;-61
2023/11/15 12:05:09;;;;;;;13.88;2.38;;;14.40;99.90;;;;;;5043310;28;20037;-57
2023/11/15 12:07:44;;;;;;;9.90;1.98;;;14.20;99.90;;;;;;5041931;28;20452;-59
2023/11/15 12:10:13;;;;;;;12.02;2.40;;;13.60;99.90;;;;;;5041355;28;20029;-57
2023/11/15 12:12:46;;;;;;;14.40;2.47;;;13.60;99.90;;;;;;5035586;28;20539;-57
2023/11/15 12:15:15;;;;;;;16.77;2.72;;;13.50;99.90;;;;;;5039889;28;20037;-60
2023/11/15 12:17:45;;;;;;;14.40;2.45;;;13.20;99.90;;;;;;5037566;28;20468;-59
2023/11/15 12:20:12;;;;;;;15.85;2.05;;;13.40;99.90;;;;;;5040507;28;20091;-58
2023/11/15 12:22:43;;;;;;;10.38;2.08;;;13.20;99.90;;;;;;5039877;28;20044;-59
2023/11/15 12:25:13;;;;;;;13.20;2.92;;;13.60;99.90;;;;;;5040559;28;20025;-57
2023/11/15 12:27:41;;;;;;;13.70;1.98;;;13.90;99.90;;;;;;5033221;28;20041;-56
2023/11/15 12:30:08;;;;;;;8.80;1.85;;;14.40;99.90;;;;;;5031417;28;20112;-60
2023/11/15 12:32:38;;;;;;;7.68;1.90;;;14.50;99.90;;;;;;5025008;28;20581;-58
2023/11/15 12:35:09;;;;;;;10.68;1.80;;;14.70;99.90;;;;;;5036255;28;20819;-54
2023/11/15 12:37:36;;;;;;;11.98;2.13;;;14.50;99.90;;;;;;5033904;28;20108;-59